Crystal, Nevada
Current Conditions -  °F | °C
As of 5:52 PM on Monday 24 Nov 2014 (Local Time) from KDRA Reporting Station
Clear Clear  
Wind Chill: 10°   Ceiling: Unl
Heat Index: 10°   Visibility: 10mi
Dew Point: -14°   Wind: 12mph
Humidity: 17%   Direction: 30°NNE
Pressure: 30.38"   Gusts: NA
Location:  36.2552°N, 116.039°W
Report Text: KDRA 250152Z AUTO 03010KT 10SM CLR 10/M14 A3038 RMK AO2 SLP283 T01001144
Loading
Personal Weather Stations






























Interactive Weather Map New forecast layout! Learn more

10-Day Weather Forecast

Advertisements
Track Severe Weather on mobile